createdAt,value
2022-12-15T00:02:19.533Z,2.45
2022-12-15T00:05:05.609Z,2.20
2022-12-15T00:07:51.824Z,3.28
2022-12-15T00:10:37.939Z,2.88
2022-12-15T00:13:29.820Z,4.78
2022-12-15T00:16:15.719Z,3.92
2022-12-15T00:19:01.397Z,0.17
2022-12-15T00:21:47.785Z,0.30
2022-12-15T00:24:33.089Z,0.30
2022-12-15T00:27:18.474Z,0.50
2022-12-15T00:30:04.409Z,0.40
2022-12-15T00:32:49.984Z,1.52
2022-12-15T00:35:35.577Z,0.95
2022-12-15T00:38:31.798Z,0.00
2022-12-15T00:40:59.750Z,1.80
2022-12-15T00:43:32.217Z,2.40
2022-12-15T00:46:19.427Z,0.75
2022-12-15T00:48:47.402Z,0.32
2022-12-15T00:51:14.657Z,0.13
2022-12-15T00:54:01.017Z,0.20
2022-12-15T00:56:46.570Z,1.45
2022-12-15T00:59:32.977Z,0.32
2022-12-15T01:02:19.115Z,1.67
2022-12-15T01:05:04.476Z,0.90
2022-12-15T01:07:50.231Z,1.05
2022-12-15T01:10:37.096Z,0.52
2022-12-15T01:13:23.693Z,1.42
2022-12-15T01:16:09.317Z,1.65
2022-12-15T01:18:55.069Z,0.73
2022-12-15T01:21:25.260Z,1.10
2022-12-15T01:23:53.181Z,0.22
2022-12-15T01:26:20.358Z,0.10
2022-12-15T01:28:47.299Z,1.75
2022-12-15T01:31:14.821Z,0.40
2022-12-15T01:33:43.898Z,1.55
2022-12-15T01:36:12.027Z,0.55
2022-12-15T01:38:39.108Z,0.30
2022-12-15T01:41:10.516Z,0.20
2022-12-15T01:43:40.041Z,0.63
2022-12-15T01:46:10.148Z,0.80
2022-12-15T01:49:16.442Z,0.82
2022-12-15T01:51:48.607Z,0.20
2022-12-15T01:54:21.080Z,0.28
2022-12-15T01:56:52.736Z,0.52
2022-12-15T01:59:25.169Z,0.57
2022-12-15T02:01:52.128Z,0.32
2022-12-15T02:04:22.943Z,1.10
2022-12-15T02:06:50.711Z,0.68
2022-12-15T02:09:18.830Z,1.20
2022-12-15T02:12:19.439Z,0.00
2022-12-15T02:15:23.642Z,0.05
2022-12-15T02:18:23.192Z,0.10
2022-12-15T02:20:59.017Z,0.75
2022-12-15T02:23:44.450Z,0.10
2022-12-15T02:26:42.270Z,0.57
2022-12-15T02:29:18.061Z,0.50
2022-12-15T02:32:31.691Z,0.00
2022-12-15T02:35:08.352Z,1.95
2022-12-15T02:37:40.432Z,0.52
2022-12-15T02:40:10.306Z,0.25
2022-12-15T02:42:45.707Z,0.45
2022-12-15T02:45:16.934Z,1.15
2022-12-15T02:47:58.475Z,1.17
2022-12-15T02:50:50.236Z,1.20
2022-12-15T02:53:26.472Z,0.00
2022-12-15T02:56:13.638Z,1.15
2022-12-15T02:58:53.932Z,1.13
2022-12-15T03:01:30.135Z,0.85
2022-12-15T03:04:00.026Z,0.00
2022-12-15T03:06:27.363Z,0.63
2022-12-15T03:08:54.221Z,0.15
2022-12-15T03:11:21.124Z,0.30
2022-12-15T03:27:17.321Z,0.63
2022-12-15T03:29:44.326Z,2.45
2022-12-15T03:32:11.223Z,1.83
2022-12-15T03:34:38.255Z,1.35
2022-12-15T03:37:05.109Z,0.77
2022-12-15T03:39:32.099Z,1.88
2022-12-15T03:41:58.884Z,1.23
2022-12-15T03:44:26.033Z,1.75
2022-12-15T03:46:52.836Z,1.58
2022-12-15T03:49:19.895Z,2.22
2022-12-15T03:51:46.865Z,1.73
2022-12-15T03:54:14.369Z,0.68
2022-12-15T03:56:41.255Z,1.20
2022-12-15T03:59:08.338Z,1.70
2022-12-15T04:01:36.905Z,2.80
2022-12-15T04:04:05.185Z,2.97
2022-12-15T04:06:32.241Z,1.92
2022-12-15T04:08:59.173Z,1.48
2022-12-15T04:11:26.122Z,1.27
2022-12-15T04:13:52.969Z,2.03
2022-12-15T04:16:20.598Z,2.00
2022-12-15T04:19:08.278Z,1.98
2022-12-15T04:21:35.531Z,1.80
2022-12-15T04:24:20.852Z,2.28
2022-12-15T04:27:06.754Z,1.33
2022-12-15T04:29:52.072Z,3.08
2022-12-15T04:32:37.916Z,2.55
2022-12-15T04:35:23.776Z,2.55
2022-12-15T04:38:09.795Z,0.55
2022-12-15T04:40:55.579Z,2.05
2022-12-15T04:43:40.819Z,2.20
2022-12-15T04:46:26.559Z,0.88
2022-12-15T04:49:11.981Z,2.05
2022-12-15T04:51:57.690Z,2.20
2022-12-15T04:54:43.453Z,2.47
2022-12-15T04:57:29.389Z,1.75
2022-12-15T05:00:14.901Z,2.25
2022-12-15T05:02:59.912Z,0.65
2022-12-15T05:05:45.622Z,1.63
2022-12-15T05:08:31.432Z,1.38
2022-12-15T05:11:18.863Z,2.13
2022-12-15T05:14:04.530Z,3.03
2022-12-15T05:16:49.805Z,1.48
2022-12-15T05:19:35.389Z,3.35
2022-12-15T05:22:21.148Z,1.60
2022-12-15T05:25:06.300Z,1.58
2022-12-15T05:27:52.243Z,2.40
2022-12-15T05:30:37.746Z,0.82
2022-12-15T05:33:05.332Z,1.58
2022-12-15T05:35:32.310Z,1.85
2022-12-15T05:37:59.286Z,1.73
2022-12-15T05:40:26.061Z,1.88
2022-12-15T05:42:52.872Z,2.83
2022-12-15T05:45:21.327Z,2.13
2022-12-15T05:47:52.049Z,2.53
2022-12-15T05:50:19.432Z,2.13
2022-12-15T05:52:49.489Z,3.28
2022-12-15T05:55:17.454Z,2.88
2022-12-15T05:57:44.561Z,1.55
2022-12-15T06:00:11.787Z,2.58
2022-12-15T06:02:38.754Z,2.10
2022-12-15T06:05:06.191Z,1.10
2022-12-15T06:07:34.063Z,2.05
2022-12-15T06:10:01.051Z,1.35
2022-12-15T06:12:28.952Z,3.05
2022-12-15T06:14:55.846Z,1.88
2022-12-15T06:17:23.297Z,1.55
2022-12-15T06:19:50.290Z,2.03
2022-12-15T06:22:17.339Z,2.50
2022-12-15T06:24:44.158Z,1.90
2022-12-15T06:27:11.119Z,4.43
2022-12-15T06:29:38.031Z,1.98
2022-12-15T06:32:05.094Z,3.15
2022-12-15T06:34:31.986Z,3.65
2022-12-15T06:37:00.429Z,1.55
2022-12-15T06:39:27.359Z,1.38
2022-12-15T06:41:54.195Z,1.92
2022-12-15T06:44:21.366Z,2.05
2022-12-15T06:46:48.467Z,1.50
2022-12-15T06:49:15.328Z,3.47
2022-12-15T06:51:44.134Z,1.73
2022-12-15T06:54:11.343Z,2.60
2022-12-15T06:56:39.299Z,2.47
2022-12-15T06:59:07.741Z,2.95
2022-12-15T07:01:35.261Z,3.53
2022-12-15T07:04:04.519Z,6.18
2022-12-15T07:06:38.762Z,2.33
2022-12-15T07:09:08.087Z,1.25
2022-12-15T07:11:35.718Z,3.10
2022-12-15T07:14:03.229Z,3.05
2022-12-15T07:16:31.298Z,3.80
2022-12-15T07:18:58.493Z,2.53
2022-12-15T07:21:25.442Z,3.47
2022-12-15T07:23:55.891Z,3.58
2022-12-15T07:26:24.411Z,3.10
2022-12-15T07:28:51.264Z,3.75
2022-12-15T07:31:18.326Z,4.53
2022-12-15T07:33:45.673Z,4.38
2022-12-15T07:36:13.310Z,3.00
2022-12-15T07:38:40.275Z,2.97
2022-12-15T07:41:09.597Z,4.05
2022-12-15T07:43:37.613Z,2.22
2022-12-15T07:46:05.682Z,4.20
2022-12-15T07:48:33.432Z,2.78
2022-12-15T07:51:15.147Z,3.47
2022-12-15T07:53:44.566Z,4.97
2022-12-15T07:56:11.428Z,3.78
2022-12-15T07:58:38.951Z,3.20
2022-12-15T08:01:07.992Z,3.10
2022-12-15T08:03:36.624Z,2.33
2022-12-15T08:06:10.141Z,4.82
2022-12-15T08:08:37.510Z,3.03
2022-12-15T08:11:08.846Z,4.88
2022-12-15T08:16:23.893Z,2.20
2022-12-15T08:18:50.868Z,3.53
2022-12-15T08:21:17.823Z,3.08
2022-12-15T08:23:45.120Z,3.53
2022-12-15T08:26:14.690Z,3.30
2022-12-15T08:28:43.076Z,1.35
2022-12-15T08:31:17.053Z,2.13
2022-12-15T08:33:45.030Z,3.42
2022-12-15T08:36:14.206Z,2.35
2022-12-15T08:38:42.599Z,2.92
2022-12-15T08:41:17.311Z,2.60
2022-12-15T08:43:48.576Z,4.32
2022-12-15T08:46:21.793Z,1.95
2022-12-15T08:48:49.629Z,1.77
2022-12-15T08:51:17.117Z,3.13
2022-12-15T08:53:44.293Z,2.65
2022-12-15T08:56:17.324Z,1.85
2022-12-15T08:58:45.814Z,2.33
2022-12-15T09:01:22.369Z,2.08
2022-12-15T09:03:51.833Z,3.03
2022-12-15T09:06:22.257Z,1.58
2022-12-15T09:08:50.582Z,3.40
2022-12-15T09:11:18.057Z,4.78
2022-12-15T09:13:44.968Z,1.52
2022-12-15T09:16:15.718Z,2.33
2022-12-15T09:18:44.636Z,1.13
2022-12-15T09:21:12.475Z,1.40
2022-12-15T09:23:39.930Z,2.42
2022-12-15T09:26:09.990Z,1.85
2022-12-15T09:28:40.580Z,1.05
2022-12-15T09:31:16.003Z,0.98
2022-12-15T09:33:44.481Z,1.30
2022-12-15T09:36:13.365Z,0.88
2022-12-15T09:38:41.855Z,0.35
2022-12-15T09:41:17.715Z,1.60
2022-12-15T09:43:47.739Z,0.60
2022-12-15T09:46:27.423Z,1.33
2022-12-15T09:48:58.458Z,0.50
2022-12-15T09:51:43.708Z,1.60
2022-12-15T09:54:11.870Z,2.22
2022-12-15T09:56:50.024Z,2.05
2022-12-15T09:59:49.419Z,0.35
2022-12-15T10:02:21.442Z,1.98
2022-12-15T10:05:13.537Z,0.60
2022-12-15T10:07:46.446Z,0.50
2022-12-15T10:10:31.087Z,1.35
2022-12-15T10:13:05.381Z,0.75
2022-12-15T10:18:20.868Z,0.55
2022-12-15T10:20:48.542Z,0.43
2022-12-15T10:23:18.323Z,2.15
2022-12-15T10:26:19.286Z,1.55
2022-12-15T10:29:15.259Z,2.50
2022-12-15T10:31:55.813Z,1.33
2022-12-15T10:34:27.752Z,1.38
2022-12-15T10:36:56.438Z,0.22
2022-12-15T10:39:24.589Z,0.70
2022-12-15T10:42:13.697Z,0.73
2022-12-15T10:44:43.876Z,0.90
2022-12-15T10:47:23.375Z,0.43
2022-12-15T10:49:51.053Z,0.85
2022-12-15T10:52:23.814Z,1.13
2022-12-15T10:54:53.388Z,1.35
2022-12-15T10:57:34.671Z,0.60
2022-12-15T11:00:13.536Z,1.10
2022-12-15T11:02:42.274Z,1.58
2022-12-15T11:05:16.062Z,2.70
2022-12-15T11:07:48.509Z,1.42
2022-12-15T11:10:23.014Z,0.80
2022-12-15T11:13:10.516Z,4.45
2022-12-15T11:15:44.175Z,2.17
2022-12-15T11:18:24.815Z,0.75
2022-12-15T11:21:02.028Z,1.10
2022-12-15T11:23:53.728Z,0.17
2022-12-15T11:26:44.643Z,1.70
2022-12-15T11:29:43.257Z,1.45
2022-12-15T11:32:13.148Z,0.73
2022-12-15T11:34:44.876Z,0.70
2022-12-15T11:37:34.514Z,0.93
2022-12-15T11:40:30.849Z,1.05
2022-12-15T11:43:06.714Z,1.23
2022-12-15T11:45:36.287Z,1.50
2022-12-15T11:48:11.299Z,0.50
2022-12-15T11:50:57.188Z,1.13
2022-12-15T11:53:39.237Z,0.13
2022-12-15T11:56:28.024Z,0.15
2022-12-15T11:59:36.518Z,4.70
2022-12-15T12:02:34.229Z,4.70
2022-12-15T12:05:26.756Z,4.75
2022-12-15T12:08:29.800Z,5.22
2022-12-15T12:11:15.233Z,5.22
2022-12-15T12:14:19.594Z,4.60
2022-12-15T12:16:52.371Z,4.78
2022-12-15T12:19:35.224Z,4.40
2022-12-15T12:22:26.079Z,4.82
2022-12-15T12:25:11.001Z,5.43
2022-12-15T12:27:50.386Z,5.43
2022-12-15T12:30:23.753Z,5.25
2022-12-15T12:33:02.757Z,6.30
2022-12-15T12:35:49.875Z,6.78
2022-12-15T12:38:24.499Z,6.55
2022-12-15T12:41:28.490Z,6.05
2022-12-15T12:44:00.771Z,6.57
2022-12-15T12:46:30.518Z,6.80
2022-12-15T12:49:06.590Z,6.75
2022-12-15T12:51:40.341Z,7.20
2022-12-15T12:54:34.899Z,7.22
2022-12-15T12:57:22.070Z,6.93
2022-12-15T12:59:52.011Z,7.45
2022-12-15T13:02:21.933Z,7.43
2022-12-15T13:04:57.962Z,6.57
2022-12-15T13:07:32.393Z,8.05
2022-12-15T13:10:08.226Z,7.93
2022-12-15T13:13:15.577Z,7.40
2022-12-15T13:15:51.040Z,5.93
2022-12-15T13:18:22.647Z,6.80
2022-12-15T13:20:55.132Z,6.90
2022-12-15T13:23:21.916Z,7.20
2022-12-15T13:25:57.914Z,8.15
2022-12-15T13:28:42.711Z,7.90
2022-12-15T13:31:21.907Z,7.65
2022-12-15T13:33:54.865Z,7.32
2022-12-15T13:36:40.006Z,8.32
2022-12-15T13:39:12.998Z,7.60
2022-12-15T13:42:31.731Z,8.32
2022-12-15T13:44:45.395Z,8.15
2022-12-15T13:47:22.189Z,7.88
2022-12-15T13:50:01.353Z,7.85
2022-12-15T13:55:37.279Z,7.82
2022-12-15T13:58:14.684Z,7.18
2022-12-15T14:00:53.302Z,8.18
2022-12-15T14:03:20.819Z,8.85
2022-12-15T14:05:53.572Z,7.93
2022-12-15T14:08:23.184Z,8.32
2022-12-15T14:11:00.017Z,8.25
2022-12-15T14:13:34.381Z,9.25
2022-12-15T14:16:15.530Z,8.27
2022-12-15T14:18:43.255Z,9.43
2022-12-15T14:21:26.954Z,8.57
2022-12-15T14:24:36.468Z,10.38
2022-12-15T14:26:42.449Z,9.90
2022-12-15T14:29:10.121Z,9.20
2022-12-15T14:31:37.657Z,8.80
2022-12-15T14:34:33.315Z,9.50
2022-12-15T14:37:03.940Z,9.77
2022-12-15T14:39:40.100Z,9.88
2022-12-15T14:42:07.939Z,9.63
2022-12-15T14:44:42.835Z,9.90
2022-12-15T14:47:29.056Z,10.93
2022-12-15T14:49:58.083Z,10.23
2022-12-15T14:52:37.159Z,10.48
2022-12-15T14:55:32.329Z,11.38
2022-12-15T15:00:32.377Z,12.00
2022-12-15T15:03:18.342Z,10.65
2022-12-15T15:06:29.449Z,11.90
2022-12-15T15:08:56.560Z,11.20
2022-12-15T15:11:35.463Z,10.65
2022-12-15T15:14:17.135Z,11.77
2022-12-15T15:29:38.486Z,13.20
2022-12-15T15:32:07.886Z,14.52
2022-12-15T15:34:34.801Z,18.25
2022-12-15T15:37:03.268Z,24.67
2022-12-15T15:39:30.095Z,24.38
2022-12-15T15:41:57.148Z,21.63
2022-12-15T15:44:23.983Z,21.35
2022-12-15T15:46:52.404Z,19.92
2022-12-15T15:49:21.735Z,19.10
2022-12-15T15:51:49.223Z,19.25
2022-12-15T15:54:23.633Z,15.32
2022-12-15T15:59:20.996Z,17.35
2022-12-15T16:01:54.816Z,15.15
2022-12-15T16:04:23.479Z,14.57
2022-12-15T16:06:51.933Z,16.70
2022-12-15T16:09:19.125Z,15.35
2022-12-15T16:11:46.766Z,14.80
2022-12-15T16:14:16.369Z,15.32
2022-12-15T16:16:43.726Z,15.85
2022-12-15T16:19:12.283Z,14.52
2022-12-15T16:21:40.398Z,14.05
2022-12-15T16:24:15.783Z,13.48
2022-12-15T16:26:48.025Z,13.57
2022-12-15T16:29:16.826Z,14.05
2022-12-15T16:31:46.814Z,14.13
2022-12-15T16:34:16.620Z,14.27
2022-12-15T16:36:44.872Z,16.08
2022-12-15T16:39:25.474Z,16.70
2022-12-15T16:41:54.214Z,15.60
2022-12-15T16:44:22.551Z,17.30
2022-12-15T16:46:49.417Z,18.40
2022-12-15T16:49:16.353Z,22.13
2022-12-15T16:51:48.191Z,17.38
2022-12-15T16:54:27.336Z,16.88
2022-12-15T16:56:57.012Z,16.55
2022-12-15T16:59:33.432Z,16.85
2022-12-15T17:02:01.421Z,17.95
2022-12-15T17:04:28.433Z,16.35
2022-12-15T17:06:55.405Z,17.27
2022-12-15T17:09:25.515Z,17.25
2022-12-15T17:11:52.891Z,20.00
2022-12-15T17:14:19.770Z,18.00
2022-12-15T17:16:46.671Z,19.85
2022-12-15T17:19:19.228Z,19.92
2022-12-15T17:21:53.594Z,19.48
2022-12-15T17:24:22.508Z,17.75
2022-12-15T17:26:50.052Z,19.15
2022-12-15T17:29:20.677Z,17.42
2022-12-15T17:31:47.745Z,18.67
2022-12-15T17:34:30.890Z,23.20
2022-12-15T17:37:00.013Z,20.83
2022-12-15T17:39:27.944Z,22.13
2022-12-15T17:42:00.435Z,22.63
2022-12-15T17:44:33.448Z,21.20
2022-12-15T17:47:02.186Z,22.92
2022-12-15T17:49:35.128Z,28.55
2022-12-15T17:52:05.309Z,26.65
2022-12-15T17:54:32.354Z,22.75
2022-12-15T17:56:59.224Z,32.03
2022-12-15T17:59:26.071Z,26.33
2022-12-15T18:01:53.133Z,26.83
2022-12-15T18:04:20.057Z,25.30
2022-12-15T18:06:47.055Z,25.58
2022-12-15T18:09:16.573Z,23.65
2022-12-15T18:11:46.699Z,23.10
2022-12-15T18:14:19.283Z,22.60
2022-12-15T18:16:46.842Z,25.23
2022-12-15T18:19:14.057Z,23.25
2022-12-15T18:21:41.308Z,21.50
2022-12-15T18:24:17.544Z,21.20
2022-12-15T18:26:44.580Z,21.58
2022-12-15T18:29:18.199Z,20.83
2022-12-15T18:31:49.507Z,19.95
2022-12-15T18:34:21.427Z,20.27
2022-12-15T18:36:48.450Z,20.20
2022-12-15T18:39:15.503Z,22.40
2022-12-15T18:41:42.446Z,23.20
2022-12-15T18:44:19.162Z,21.90
2022-12-15T18:46:48.142Z,21.63
2022-12-15T18:49:15.657Z,22.95
2022-12-15T18:51:42.736Z,22.55
2022-12-15T18:54:21.625Z,19.05
2022-12-15T18:56:48.584Z,18.23
2022-12-15T18:59:17.569Z,16.52
2022-12-15T19:01:46.373Z,15.60
2022-12-15T19:04:14.081Z,17.55
2022-12-15T19:06:41.408Z,18.88
2022-12-15T19:09:15.848Z,17.00
2022-12-15T19:14:43.225Z,17.75
2022-12-15T19:17:30.683Z,19.10
2022-12-15T19:20:16.119Z,19.23
2022-12-15T19:22:44.443Z,19.05
2022-12-15T19:25:30.308Z,22.65
2022-12-15T19:27:59.823Z,23.42
2022-12-15T19:30:29.966Z,27.42
2022-12-15T19:32:56.997Z,27.13
2022-12-15T19:35:24.945Z,26.13
2022-12-15T19:37:55.300Z,26.05
2022-12-15T19:40:30.419Z,28.70
2022-12-15T19:42:58.962Z,27.85
2022-12-15T19:45:28.506Z,28.65
2022-12-15T19:47:55.647Z,29.92
2022-12-15T19:50:36.378Z,31.45
2022-12-15T19:53:11.272Z,30.35
2022-12-15T19:55:38.909Z,30.65
2022-12-15T19:58:28.156Z,30.25
2022-12-15T20:00:58.316Z,29.33
2022-12-15T20:03:26.325Z,28.25
2022-12-15T20:05:55.582Z,27.35
2022-12-15T20:08:26.221Z,29.67
2022-12-15T20:10:54.790Z,28.85
2022-12-15T20:13:22.204Z,31.35
2022-12-15T20:15:49.245Z,30.50
2022-12-15T20:18:16.268Z,35.42
2022-12-15T20:20:45.667Z,35.03
2022-12-15T20:23:27.877Z,32.08
2022-12-15T20:25:56.274Z,31.95
2022-12-15T20:28:26.027Z,31.65
2022-12-15T20:30:53.650Z,31.65
2022-12-15T20:33:21.046Z,30.02
2022-12-15T20:35:50.483Z,28.23
2022-12-15T20:38:33.861Z,29.08
2022-12-15T20:41:02.191Z,29.67
2022-12-15T20:43:31.787Z,27.13
2022-12-15T20:46:16.809Z,28.98
2022-12-15T20:48:44.888Z,32.38
2022-12-15T20:51:21.156Z,27.08
2022-12-15T20:53:48.484Z,29.10
2022-12-15T20:56:15.389Z,30.45
2022-12-15T20:58:43.158Z,29.38
2022-12-15T21:01:18.691Z,28.83
2022-12-15T21:03:46.993Z,24.20
2022-12-15T21:06:14.781Z,21.45
2022-12-15T21:08:42.077Z,23.05
2022-12-15T21:11:18.630Z,17.05
2022-12-15T21:13:47.227Z,18.52
2022-12-15T21:16:20.069Z,16.50
2022-12-15T21:19:18.783Z,17.42
2022-12-15T21:21:39.011Z,19.50
2022-12-15T21:24:22.965Z,21.10
2022-12-15T21:26:50.678Z,20.80
2022-12-15T21:29:28.785Z,21.88
2022-12-15T21:31:55.665Z,20.88
2022-12-15T21:34:22.721Z,20.88
2022-12-15T21:36:54.764Z,23.27
2022-12-15T21:39:25.715Z,25.40
2022-12-15T21:41:52.666Z,24.48
2022-12-15T21:44:22.143Z,24.73
2022-12-15T21:46:49.111Z,25.67
2022-12-15T21:49:18.834Z,24.10
2022-12-15T21:51:57.642Z,22.88
2022-12-15T21:54:30.950Z,24.05
2022-12-15T21:56:59.793Z,25.45
2022-12-15T21:59:29.410Z,24.80
2022-12-15T22:01:56.489Z,23.85
2022-12-15T22:04:26.870Z,24.00
2022-12-15T22:06:53.747Z,24.67
2022-12-15T22:09:21.852Z,25.80
2022-12-15T22:11:55.382Z,24.58
2022-12-15T22:14:26.119Z,27.88
2022-12-15T22:16:53.816Z,25.83
2022-12-15T22:19:22.309Z,25.15
2022-12-15T22:21:49.293Z,23.10
2022-12-15T22:24:16.238Z,22.67
2022-12-15T22:26:43.322Z,21.17
2022-12-15T22:29:37.752Z,20.45
2022-12-15T22:32:12.912Z,21.95
2022-12-15T22:34:39.780Z,20.48
2022-12-15T22:37:06.706Z,20.73
2022-12-15T22:39:33.926Z,21.02
2022-12-15T22:42:01.562Z,21.63
2022-12-15T22:44:32.537Z,22.55
2022-12-15T22:47:01.923Z,23.75
2022-12-15T22:49:39.633Z,21.10
2022-12-15T22:52:16.301Z,18.85
2022-12-15T22:54:45.652Z,14.07
2022-12-15T22:57:29.497Z,12.48
2022-12-15T23:00:05.803Z,11.32
2022-12-15T23:02:35.723Z,10.93
2022-12-15T23:05:04.005Z,12.35
2022-12-15T23:07:31.461Z,13.80
2022-12-15T23:10:16.435Z,14.07
2022-12-15T23:12:43.691Z,12.70
2022-12-15T23:15:29.397Z,9.90
2022-12-15T23:17:56.344Z,12.35
2022-12-15T23:20:23.225Z,12.27
2022-12-15T23:22:50.178Z,11.70
2022-12-15T23:25:16.985Z,12.32
2022-12-15T23:27:44.024Z,12.10
2022-12-15T23:30:12.888Z,11.57
2022-12-15T23:32:39.801Z,12.32
2022-12-15T23:35:07.489Z,11.30
2022-12-15T23:37:35.184Z,11.27
2022-12-15T23:40:02.038Z,11.63
2022-12-15T23:42:28.839Z,12.93
2022-12-15T23:44:55.794Z,12.15
2022-12-15T23:47:22.760Z,13.23
2022-12-15T23:49:49.878Z,14.25
2022-12-15T23:52:18.405Z,14.85
2022-12-15T23:54:45.789Z,14.13
2022-12-15T23:57:12.644Z,12.55
2022-12-15T23:59:39.626Z,12.50
